Terminal Aerodrome Forecast
Issued by NWS

Home | Current Version | Previous Version | Text Only | Print | Product List | Glossary On
Versions: 1 2 3 4 5 6 7 8 9 10 11 12 13 14 15 16 17
000
FTAK31 PANC 191308 AAA
TAFAHO
TAF AMD
PAHO 191308Z 1913/2012 VRB04KT P6SM -SHSN BKN008 BKN040
      TEMPO 1913/1915 3SM -SN BKN010
     FM191800 03005KT P6SM BKN050=

USA.gov is the U.S. government's official web portal to all federal, state and local government web resources and services.